Météo Nord-Pas-de-Calais   La météo au plus près de chez vous

Station météorologique

Observations météo à Besancon (25056)

25056001 306 m Dernier relevé à 22:48
20.3°C
Humidité 55 % Vent 2.9 km/h 1020.7 hPa

Journée consultée

Lundi 31 Août 2026

Synthèse de la journée

Périodes de référence en UTC

Température maximale

24.9°C

à 16:18

06h 06h

Température minimale

15.8°C

à 06:24

18h 18h

Rafale maximale

45 km/h

à 14:24

00h 00h

Précipitations

0 mm

Cumul quotidien

06h 06h

Ensoleillement

5h 36 mins

Durée quotidienne

00h 00h

Graphiques de la journée

Heure locale Réduire

Données détaillées

Relevés météo

Pas de 6 minutes Afficher les relevés infra-horaires
Relevés météo détaillés à Besancon pour le Lundi 31 Août 2026
Heure Température °C Point de rosée °C Humidité % Vent moyen (raf.), km/h Précipitations mm Température à 10 cm °C Température à 20 cm °C Température à 50 cm °C Température à 100 cm °C Hauteur neige cm Ensoleillement min Rayonnement global W/m² Pression hPa
22:48 20.3 °C 12 °C 59 % 2 km/h (6 km/h) 0 mm0 mm 22.4 °C 22.3 °C 21.4 °C 20.3 °C 0 cm 0 min 0 W/m² 1021.2 hPa
22:42 20.3 °C 11.8 °C 58 % 4 km/h (11 km/h) 0 mm0 mm 22.4 °C 22.3 °C 21.4 °C 20.4 °C 0 cm 0 min 0 W/m² 1021.2 hPa
22:36 20.2 °C 11.4 °C 57 % 3 km/h (11 km/h) 0 mm0 mm 22.4 °C 22.3 °C 21.4 °C 20.4 °C 0 cm 0 min 0 W/m² 1021.1 hPa
22:30 20.3 °C 11.5 °C 57 % 3 km/h (5 km/h) 0 mm0 mm 22.5 °C 22.3 °C 21.4 °C 20.4 °C 0 cm 0 min 0 W/m² 1021.1 hPa
22:24 20.3 °C 11.5 °C 57 % 2 km/h (4 km/h) 0 mm0 mm 22.5 °C 22.3 °C 21.4 °C 20.4 °C 0 cm 0 min 0 W/m² 1021 hPa
22:18 20.4 °C 11.3 °C 56 % 2 km/h (4 km/h) 0 mm0 mm 22.5 °C 22.3 °C 21.4 °C 20.4 °C 0 cm 0 min 0 W/m² 1021 hPa
22:12 20.6 °C 11.5 °C 56 % 3 km/h (4 km/h) 0 mm0 mm 22.5 °C 22.3 °C 21.4 °C 20.4 °C 0 cm 0 min 0 W/m² 1020.9 hPa
22:06 20.7 °C 11.3 °C 55 % 3 km/h (5 km/h) 0 mm0 mm 22.5 °C 22.3 °C 21.4 °C 20.4 °C 0 cm 0 min 0 W/m² 1020.8 hPa
22:00 20.7 °C 11.3 °C 55 % 3 km/h (5 km/h) 0 mm0 mm 22.5 °C 22.3 °C 21.4 °C 20.4 °C 0 cm 0 min 0 W/m² 1020.8 hPa
21:54 20.7 °C 11.3 °C 55 % 3 km/h (8 km/h) 0 mm0 mm 22.6 °C 22.3 °C 21.4 °C 20.3 °C 0 cm 0 min 0 W/m² 1020.7 hPa
21:48 20.8 °C 11.4 °C 55 % 3 km/h (8 km/h) 0 mm0 mm 22.6 °C 22.3 °C 21.4 °C 20.4 °C 0 cm 0 min 0 W/m² 1020.7 hPa
21:42 20.9 °C 11.2 °C 54 % 2 km/h (6 km/h) 0 mm0 mm 22.6 °C 22.3 °C 21.4 °C 20.4 °C 0 cm 0 min 0 W/m² 1020.5 hPa
21:36 21.1 °C 10.9 °C 52 % 2 km/h (6 km/h) 0 mm0 mm 22.6 °C 22.3 °C 21.4 °C 20.3 °C 0 cm 0 min 0 W/m² 1020.4 hPa
21:30 21.2 °C 10.9 °C 52 % 3 km/h (8 km/h) 0 mm0 mm 22.6 °C 22.3 °C 21.4 °C 20.4 °C 0 cm 0 min 0 W/m² 1020.3 hPa
21:24 21.3 °C 11 °C 52 % 4 km/h (10 km/h) 0 mm0 mm 22.7 °C 22.4 °C 21.4 °C 20.4 °C 0 cm 0 min 0 W/m² 1020.3 hPa
21:18 21.4 °C 10.8 °C 51 % 4 km/h (9 km/h) 0 mm0 mm 22.7 °C 22.3 °C 21.4 °C 20.4 °C 0 cm 0 min 0 W/m² 1020.2 hPa
21:12 21.4 °C 11.4 °C 53 % 4 km/h (7 km/h) 0 mm0 mm 22.7 °C 22.3 °C 21.4 °C 20.4 °C 0 cm 0 min 0 W/m² 1020.2 hPa
21:06 21.5 °C 11.2 °C 52 % 4 km/h (6 km/h) 0 mm0 mm 22.7 °C 22.3 °C 21.4 °C 20.4 °C 0 cm 0 min 0 W/m² 1020.2 hPa
21:00 21.4 °C 11.1 °C 52 % 3 km/h (7 km/h) 0 mm0 mm 22.7 °C 22.3 °C 21.4 °C 20.4 °C 0 cm 0 min 0 W/m² 1020 hPa
20:54 21.5 °C 10.9 °C 51 % 3 km/h (5 km/h) 0 mm0 mm 22.8 °C 22.3 °C 21.4 °C 20.4 °C 0 cm 0 min 0 W/m² 1019.8 hPa
20:48 21.6 °C 10.7 °C 50 % 2 km/h (4 km/h) 0 mm0 mm 22.8 °C 22.3 °C 21.4 °C 20.4 °C 0 cm 0 min 0 W/m² 1019.8 hPa
20:42 21.8 °C 10.6 °C 49 % 3 km/h (5 km/h) 0 mm0 mm 22.8 °C 22.3 °C 21.4 °C 20.4 °C 0 cm 0 min 0 W/m² 1019.7 hPa
20:36 22 °C 10.8 °C 49 % 4 km/h (10 km/h) 0 mm0 mm 22.8 °C 22.3 °C 21.4 °C 20.3 °C 0 cm 0 min 0 W/m² 1019.7 hPa
20:30 22.1 °C 10.6 °C 48 % 5 km/h (12 km/h) 0 mm0 mm 22.8 °C 22.3 °C 21.4 °C 20.4 °C 0 cm 0 min 0 W/m² 1019.6 hPa
20:24 22.3 °C 10.8 °C 48 % 6 km/h (14 km/h) 0 mm0 mm 22.8 °C 22.3 °C 21.4 °C 20.4 °C 0 cm 0 min 0 W/m² 1019.5 hPa
20:18 22.5 °C 10.6 °C 47 % 8 km/h (14 km/h) 0 mm0 mm 22.8 °C 22.3 °C 21.4 °C 20.3 °C 0 cm 0 min 0 W/m² 1019.4 hPa
20:12 22.6 °C 10.7 °C 47 % 9 km/h (16 km/h) 0 mm0 mm 22.9 °C 22.3 °C 21.4 °C 20.4 °C 0 cm 0 min 0 W/m² 1019.4 hPa
20:06 22.7 °C 10.5 °C 46 % 9 km/h (16 km/h) 0 mm0 mm 22.8 °C 22.3 °C 21.4 °C 20.4 °C 0 cm 0 min 0 W/m² 1019.3 hPa
20:00 22.7 °C 10.5 °C 46 % 7 km/h (15 km/h) 0 mm0 mm 22.9 °C 22.3 °C 21.4 °C 20.3 °C 0 cm 0 min 0 W/m² 1019.3 hPa
19:54 22.8 °C 10.6 °C 46 % 7 km/h (16 km/h) 0 mm0 mm 22.9 °C 22.2 °C 21.4 °C 20.3 °C 0 cm 0 min 0 W/m² 1019.3 hPa
19:48 22.8 °C 10.6 °C 46 % 6 km/h (16 km/h) 0 mm0 mm 22.9 °C 22.2 °C 21.4 °C 20.3 °C 0 cm 0 min 0 W/m² 1019.2 hPa
19:42 23 °C 10.8 °C 46 % 7 km/h (15 km/h) 0 mm0 mm 22.9 °C 22.2 °C 21.4 °C 20.3 °C 0 cm 1 min 8.3 W/m² 1019.1 hPa
19:36 23 °C 10.8 °C 46 % 8 km/h (17 km/h) 0 mm0 mm 22.9 °C 22.2 °C 21.4 °C 20.4 °C 0 cm 0 min 8.6 W/m² 1019.1 hPa
19:30 23.1 °C 10.5 °C 45 % 8 km/h (17 km/h) 0 mm0 mm 22.9 °C 22.2 °C 21.4 °C 20.4 °C 0 cm 0 min 9.6 W/m² 1019.1 hPa
19:24 23.3 °C 10.7 °C 45 % 8 km/h (17 km/h) 0 mm0 mm 22.9 °C 22.2 °C 21.4 °C 20.3 °C 0 cm 0 min 16.1 W/m² 1019.1 hPa
19:18 23.4 °C 10.4 °C 44 % 9 km/h (20 km/h) 0 mm0 mm 22.9 °C 22.2 °C 21.4 °C 20.4 °C 0 cm 0 min 23.8 W/m² 1019 hPa
19:12 23.7 °C 10.4 °C 43 % 12 km/h (27 km/h) 0 mm0 mm 22.9 °C 22.2 °C 21.4 °C 20.4 °C 0 cm 2 min 34.2 W/m² 1019 hPa
19:06 23.7 °C 10.4 °C 43 % 12 km/h (27 km/h) 0 mm0 mm 22.9 °C 22.2 °C 21.4 °C 20.4 °C 0 cm 3 min 40.9 W/m² 1018.9 hPa
19:00 23.8 °C 10.5 °C 43 % 12 km/h (27 km/h) 0 mm0 mm 22.9 °C 22.2 °C 21.4 °C 20.4 °C 0 cm 2 min 39.7 W/m² 1019 hPa
18:54 23.8 °C 10.5 °C 43 % 11 km/h (21 km/h) 0 mm0 mm 22.9 °C 22.2 °C 21.4 °C 20.4 °C 0 cm 3 min 49.6 W/m² 1019 hPa
18:48 23.6 °C 10.6 °C 44 % 10 km/h (21 km/h) 0 mm0 mm 22.9 °C 22.2 °C 21.4 °C 20.4 °C 0 cm 1 min 31.4 W/m² 1018.9 hPa
18:42 23.5 °C 10.2 °C 43 % 10 km/h (22 km/h) 0 mm0 mm 22.9 °C 22.1 °C 21.4 °C 20.4 °C 0 cm 0 min 30.9 W/m² 1019 hPa
18:36 23.7 °C 10.4 °C 43 % 11 km/h (22 km/h) 0 mm0 mm 22.9 °C 22.1 °C 21.4 °C 20.4 °C 0 cm 2 min 53.5 W/m² 1018.9 hPa
18:30 23.5 °C 10.2 °C 43 % 14 km/h (31 km/h) 0 mm0 mm 22.9 °C 22.1 °C 21.4 °C 20.4 °C 0 cm 0 min 34.7 W/m² 1019 hPa
18:24 23.5 °C 10.5 °C 44 % 13 km/h (31 km/h) 0 mm0 mm 22.9 °C 22.1 °C 21.4 °C 20.4 °C 0 cm 0 min 31.8 W/m² 1018.9 hPa
18:18 23.6 °C 10.3 °C 43 % 13 km/h (26 km/h) 0 mm0 mm 22.9 °C 22.1 °C 21.4 °C 20.4 °C 0 cm 0 min 39.8 W/m² 1019 hPa
18:12 23.8 °C 10.1 °C 42 % 12 km/h (26 km/h) 0 mm0 mm 22.9 °C 22.1 °C 21.4 °C 20.4 °C 0 cm 0 min 46.8 W/m² 1018.9 hPa
18:06 24 °C 10.6 °C 43 % 11 km/h (23 km/h) 0 mm0 mm 22.9 °C 22.1 °C 21.4 °C 20.4 °C 0 cm 1 min 68.1 W/m² 1018.8 hPa
18:00 23.8 °C 10.1 °C 42 % 13 km/h (28 km/h) 0 mm0 mm 22.9 °C 22 °C 21.4 °C 20.4 °C 0 cm 1 min 62.5 W/m² 1018.9 hPa
17:54 23.9 °C 10.2 °C 42 % 15 km/h (31 km/h) 0 mm0 mm 22.9 °C 22 °C 21.4 °C 20.4 °C 0 cm 0 min 47 W/m² 1018.8 hPa
17:48 24.6 °C 10.1 °C 40 % 15 km/h (39 km/h) 0 mm0 mm 22.9 °C 22 °C 21.4 °C 20.4 °C 0 cm 4 min 133.4 W/m² 1018.9 hPa
17:42 24.4 °C 10.3 °C 41 % 14 km/h (35 km/h) 0 mm0 mm 22.8 °C 22 °C 21.4 °C 20.4 °C 0 cm 4 min 135.3 W/m² 1018.8 hPa
17:36 24.3 °C 10.2 °C 41 % 17 km/h (36 km/h) 0 mm0 mm 22.8 °C 22 °C 21.4 °C 20.4 °C 0 cm 3 min 120.3 W/m² 1018.9 hPa
17:30 24.2 °C 10.1 °C 41 % 16 km/h (36 km/h) 0 mm0 mm 22.8 °C 22 °C 21.4 °C 20.3 °C 0 cm 1 min 77.6 W/m² 1018.9 hPa
17:24 24.8 °C 10.3 °C 40 % 14 km/h (30 km/h) 0 mm0 mm 22.8 °C 22 °C 21.4 °C 20.4 °C 0 cm 6 min 161.9 W/m² 1018.8 hPa
17:18 24.8 °C 9.9 °C 39 % 16 km/h (30 km/h) 0 mm0 mm 22.8 °C 22 °C 21.4 °C 20.4 °C 0 cm 6 min 160.6 W/m² 1018.8 hPa
17:12 24.5 °C 9.6 °C 39 % 19 km/h (40 km/h) 0 mm0 mm 22.7 °C 21.9 °C 21.4 °C 20.4 °C 0 cm 6 min 169.1 W/m² 1018.9 hPa
17:06 24.6 °C 9.7 °C 39 % 16 km/h (40 km/h) 0 mm0 mm 22.7 °C 21.9 °C 21.4 °C 20.4 °C 0 cm 6 min 179 W/m² 1018.9 hPa
17:00 24.4 °C 10.3 °C 41 % 17 km/h (31 km/h) 0 mm0 mm 22.7 °C 21.9 °C 21.4 °C 20.3 °C 0 cm 6 min 182.2 W/m² 1018.8 hPa
16:54 24.6 °C 10.8 °C 42 % 17 km/h (30 km/h) 0 mm0 mm 22.7 °C 21.9 °C 21.4 °C 20.4 °C 0 cm 6 min 191.6 W/m² 1018.7 hPa
16:48 24.3 °C 10.9 °C 43 % 18 km/h (33 km/h) 0 mm0 mm 22.6 °C 21.9 °C 21.4 °C 20.4 °C 0 cm 5 min 192.1 W/m² 1018.9 hPa
16:42 24 °C 11 °C 44 % 17 km/h (31 km/h) 0 mm0 mm 22.6 °C 21.8 °C 21.4 °C 20.4 °C 0 cm 3 min 127.5 W/m² 1018.9 hPa
16:36 24.3 °C 10.6 °C 42 % 15 km/h (33 km/h) 0 mm0 mm 22.6 °C 21.9 °C 21.4 °C 20.4 °C 0 cm 4 min 177.3 W/m² 1018.9 hPa
16:30 24.3 °C 10.9 °C 43 % 17 km/h (43 km/h) 0 mm0 mm 22.5 °C 21.8 °C 21.4 °C 20.4 °C 0 cm 4 min 164.4 W/m² 1018.9 hPa
16:24 24.3 °C 10.6 °C 42 % 16 km/h (43 km/h) 0 mm0 mm 22.5 °C 21.8 °C 21.4 °C 20.4 °C 0 cm 5 min 194.5 W/m² 1018.9 hPa
16:18 24.9 °C 12.5 °C 46 % 13 km/h (39 km/h) 0 mm0 mm 22.5 °C 21.8 °C 21.4 °C 20.4 °C 0 cm 6 min 227.7 W/m² 1018.7 hPa
16:12 24.8 °C 11.4 °C 43 % 13 km/h (31 km/h) 0 mm0 mm 22.5 °C 21.8 °C 21.4 °C 20.4 °C 0 cm 6 min 220.5 W/m² 1018.6 hPa
16:06 24.5 °C 11.4 °C 44 % 15 km/h (27 km/h) 0 mm0 mm 22.4 °C 21.8 °C 21.4 °C 20.4 °C 0 cm 6 min 233.9 W/m² 1018.8 hPa
16:00 24.2 °C 11.8 °C 46 % 15 km/h (39 km/h) 0 mm0 mm 22.4 °C 21.8 °C 21.4 °C 20.4 °C 0 cm 6 min 234.8 W/m² 1018.9 hPa
15:54 23.8 °C 11.5 °C 46 % 15 km/h (39 km/h) 0 mm0 mm 22.4 °C 21.8 °C 21.4 °C 20.3 °C 0 cm 6 min 235.8 W/m² 1018.9 hPa
15:48 24.1 °C 12.7 °C 49 % 15 km/h (38 km/h) 0 mm0 mm 22.3 °C 21.7 °C 21.4 °C 20.4 °C 0 cm 6 min 239.7 W/m² 1019 hPa
15:42 23.4 °C 11.8 °C 48 % 19 km/h (40 km/h) 0 mm0 mm 22.3 °C 21.7 °C 21.4 °C 20.4 °C 0 cm 5 min 232 W/m² 1019.1 hPa
15:36 23.7 °C 11.7 °C 47 % 17 km/h (40 km/h) 0 mm0 mm 22.3 °C 21.7 °C 21.4 °C 20.4 °C 0 cm 6 min 251.6 W/m² 1019.1 hPa
15:30 23.8 °C 11.8 °C 47 % 16 km/h (36 km/h) 0 mm0 mm 22.2 °C 21.7 °C 21.5 °C 20.4 °C 0 cm 6 min 249.7 W/m² 1019 hPa
15:24 23.8 °C 11.8 °C 47 % 17 km/h (36 km/h) 0 mm0 mm 22.2 °C 21.7 °C 21.4 °C 20.4 °C 0 cm 6 min 254.4 W/m² 1019.1 hPa
15:18 23.5 °C 11.9 °C 48 % 16 km/h (37 km/h) 0 mm0 mm 22.2 °C 21.7 °C 21.5 °C 20.4 °C 0 cm 5 min 244.9 W/m² 1019.1 hPa
15:12 23.4 °C 11.1 °C 46 % 17 km/h (37 km/h) 0 mm0 mm 22.1 °C 21.7 °C 21.5 °C 20.4 °C 0 cm 6 min 243.7 W/m² 1019.2 hPa
15:06 23.4 °C 11.4 °C 47 % 17 km/h (37 km/h) 0 mm0 mm 22.1 °C 21.7 °C 21.4 °C 20.4 °C 0 cm 5 min 244.1 W/m² 1019.2 hPa
15:00 23.3 °C 12 °C 49 % 17 km/h (37 km/h) 0 mm0 mm 22.1 °C 21.6 °C 21.4 °C 20.4 °C 0 cm 6 min 283.2 W/m² 1019.3 hPa
14:54 23.2 °C 11.9 °C 49 % 17 km/h (33 km/h) 0 mm0 mm 22 °C 21.6 °C 21.4 °C 20.4 °C 0 cm 6 min 299.1 W/m² 1019.3 hPa
14:48 23.1 °C 12.4 °C 51 % 16 km/h (35 km/h) 0 mm0 mm 22 °C 21.6 °C 21.4 °C 20.4 °C 0 cm 6 min 306.2 W/m² 1019.3 hPa
14:42 22.4 °C 12.6 °C 54 % 15 km/h (35 km/h) 0 mm0 mm 22 °C 21.6 °C 21.5 °C 20.4 °C 0 cm 3 min 223.6 W/m² 1019.4 hPa
14:36 22 °C 13.1 °C 57 % 14 km/h (29 km/h) 0 mm0 mm 21.9 °C 21.6 °C 21.5 °C 20.4 °C 0 cm 1 min 150.7 W/m² 1019.6 hPa
14:30 21.9 °C 12.7 °C 56 % 16 km/h (44 km/h) 0 mm0 mm 21.9 °C 21.6 °C 21.5 °C 20.4 °C 0 cm 1 min 101.3 W/m² 1019.5 hPa
14:24 22.3 °C 13.1 °C 56 % 18 km/h (45 km/h) 0 mm0 mm 21.9 °C 21.6 °C 21.5 °C 20.4 °C 0 cm 0 min 109.9 W/m² 1019.3 hPa
14:18 22.5 °C 13 °C 55 % 15 km/h (32 km/h) 0 mm0 mm 21.8 °C 21.6 °C 21.5 °C 20.4 °C 0 cm 4 min 238.3 W/m² 1019.3 hPa
14:12 22.3 °C 13.4 °C 57 % 13 km/h (33 km/h) 0 mm0 mm 21.8 °C 21.5 °C 21.4 °C 20.4 °C 0 cm 2 min 169.9 W/m² 1019.3 hPa
14:06 22 °C 13.9 °C 60 % 15 km/h (32 km/h) 0 mm0 mm 21.8 °C 21.5 °C 21.5 °C 20.4 °C 0 cm 4 min 224.7 W/m² 1019.3 hPa
14:00 21.5 °C 13.4 °C 60 % 16 km/h (32 km/h) 0 mm0 mm 21.7 °C 21.6 °C 21.5 °C 20.4 °C 0 cm 0 min 108.6 W/m² 1019.4 hPa
13:54 21.9 °C 13.5 °C 59 % 15 km/h (28 km/h) 0 mm0 mm 21.7 °C 21.5 °C 21.5 °C 20.4 °C 0 cm 0 min 92.6 W/m² 1019.4 hPa
13:48 22.6 °C 14.2 °C 59 % 15 km/h (32 km/h) 0 mm0 mm 21.7 °C 21.5 °C 21.5 °C 20.4 °C 0 cm 3 min 236.5 W/m² 1019.2 hPa
13:42 22.3 °C 13.9 °C 59 % 18 km/h (32 km/h) 0 mm0 mm 21.6 °C 21.5 °C 21.5 °C 20.4 °C 0 cm 6 min 327.9 W/m² 1019.3 hPa
13:36 21.9 °C 14.3 °C 62 % 15 km/h (32 km/h) 0 mm0 mm 21.6 °C 21.5 °C 21.5 °C 20.4 °C 0 cm 3 min 256.1 W/m² 1019.4 hPa
13:30 21.6 °C 13.8 °C 61 % 16 km/h (35 km/h) 0 mm0 mm 21.6 °C 21.5 °C 21.5 °C 20.4 °C 0 cm 3 min 187.1 W/m² 1019.5 hPa
13:24 21.9 °C 13.8 °C 60 % 17 km/h (35 km/h) 0 mm0 mm 21.5 °C 21.5 °C 21.5 °C 20.4 °C 0 cm 5 min 273.9 W/m² 1019.6 hPa
13:18 21.6 °C 14 °C 62 % 15 km/h (34 km/h) 0 mm0 mm 21.5 °C 21.5 °C 21.5 °C 20.4 °C 0 cm 4 min 247.4 W/m² 1019.6 hPa
13:12 21.6 °C 14.3 °C 63 % 13 km/h (37 km/h) 0 mm0 mm 21.5 °C 21.5 °C 21.5 °C 20.4 °C 0 cm 6 min 305.9 W/m² 1019.6 hPa
13:06 21.2 °C 14.1 °C 64 % 15 km/h (31 km/h) 0 mm0 mm 21.4 °C 21.5 °C 21.5 °C 20.4 °C 0 cm 6 min 291.2 W/m² 1019.5 hPa
13:00 21 °C 14.4 °C 66 % 15 km/h (35 km/h) 0 mm0 mm 21.4 °C 21.5 °C 21.5 °C 20.3 °C 0 cm 6 min 296.9 W/m² 1019.7 hPa
12:54 20.5 °C 14.4 °C 68 % 14 km/h (35 km/h) 0 mm0 mm 21.4 °C 21.5 °C 21.5 °C 20.4 °C 0 cm 5 min 240.5 W/m² 1019.7 hPa
12:48 20.2 °C 14.8 °C 71 % 15 km/h (27 km/h) 0 mm0 mm 21.4 °C 21.5 °C 21.5 °C 20.4 °C 0 cm 5 min 260 W/m² 1019.7 hPa
12:42 19.5 °C 14.5 °C 73 % 16 km/h (28 km/h) 0 mm0 mm 21.4 °C 21.5 °C 21.5 °C 20.4 °C 0 cm 4 min 212.5 W/m² 1019.9 hPa
12:36 19 °C 14.5 °C 75 % 14 km/h (28 km/h) 0 mm0 mm 21.3 °C 21.5 °C 21.5 °C 20.4 °C 0 cm 0 min 89.9 W/m² 1020.1 hPa
12:30 19.4 °C 14.2 °C 72 % 14 km/h (28 km/h) 0 mm0 mm 21.3 °C 21.5 °C 21.5 °C 20.4 °C 0 cm 0 min 63.2 W/m² 1020 hPa
12:24 20.3 °C 13.3 °C 64 % 13 km/h (27 km/h) 0 mm0 mm 21.3 °C 21.5 °C 21.5 °C 20.4 °C 0 cm 0 min 80.1 W/m² 1019.8 hPa
12:18 20.5 °C 13.5 °C 64 % 12 km/h (27 km/h) 0 mm0 mm 21.2 °C 21.5 °C 21.5 °C 20.4 °C 0 cm 0 min 97.9 W/m² 1019.6 hPa
12:12 20.5 °C 13.5 °C 64 % 10 km/h (24 km/h) 0 mm0 mm 21.2 °C 21.5 °C 21.5 °C 20.4 °C 0 cm 0 min 78.4 W/m² 1019.6 hPa
12:06 20.3 °C 13.3 °C 64 % 12 km/h (24 km/h) 0 mm0 mm 21.2 °C 21.5 °C 21.5 °C 20.4 °C 0 cm 0 min 46.3 W/m² 1019.5 hPa
12:00 20.4 °C 12.9 °C 62 % 15 km/h (27 km/h) 0 mm0 mm 21.2 °C 21.5 °C 21.5 °C 20.4 °C 0 cm 1 min 120 W/m² 1019.5 hPa
11:54 20.6 °C 13.1 °C 62 % 15 km/h (31 km/h) 0 mm0 mm 21.2 °C 21.5 °C 21.5 °C 20.4 °C 0 cm 0 min 96.8 W/m² 1019.5 hPa
11:48 21 °C 13.2 °C 61 % 13 km/h (27 km/h) 0 mm0 mm 21.1 °C 21.5 °C 21.5 °C 20.4 °C 0 cm 3 min 212.7 W/m² 1019.5 hPa
11:42 21.2 °C 13.9 °C 63 % 12 km/h (27 km/h) 0 mm0 mm 21.1 °C 21.5 °C 21.5 °C 20.4 °C 0 cm 6 min 249 W/m² 1019.5 hPa
11:36 20.9 °C 13.3 °C 62 % 11 km/h (26 km/h) 0 mm0 mm 21.1 °C 21.5 °C 21.5 °C 20.4 °C 0 cm 6 min 242.2 W/m² 1019.5 hPa
11:30 20.5 °C 13.9 °C 66 % 12 km/h (22 km/h) 0 mm0 mm 21.1 °C 21.5 °C 21.5 °C 20.4 °C 0 cm 6 min 256.5 W/m² 1019.6 hPa
11:24 20.1 °C 13.8 °C 67 % 16 km/h (31 km/h) 0 mm0 mm 21.1 °C 21.5 °C 21.5 °C 20.4 °C 0 cm 6 min 238.7 W/m² 1019.7 hPa
11:18 19.8 °C 13.5 °C 67 % 16 km/h (31 km/h) 0 mm0 mm 21.1 °C 21.5 °C 21.5 °C 20.4 °C 0 cm 5 min 212.7 W/m² 1019.8 hPa
11:12 20.1 °C 13.3 °C 65 % 13 km/h (31 km/h) 0 mm0 mm 21 °C 21.5 °C 21.5 °C 20.4 °C 0 cm 6 min 233.2 W/m² 1019.8 hPa
11:06 19.9 °C 13.4 °C 66 % 12 km/h (23 km/h) 0 mm0 mm 21 °C 21.6 °C 21.5 °C 20.4 °C 0 cm 6 min 235.6 W/m² 1019.7 hPa
11:00 19.8 °C 13.7 °C 68 % 13 km/h (28 km/h) 0 mm0 mm 21 °C 21.5 °C 21.5 °C 20.4 °C 0 cm 6 min 232 W/m² 1019.8 hPa
10:54 19.3 °C 13.9 °C 71 % 14 km/h (28 km/h) 0 mm0 mm 21 °C 21.6 °C 21.5 °C 20.4 °C 0 cm 6 min 203 W/m² 1019.9 hPa
10:48 19.2 °C 13.8 °C 71 % 14 km/h (29 km/h) 0 mm0 mm 21 °C 21.6 °C 21.5 °C 20.4 °C 0 cm 6 min 218.4 W/m² 1019.9 hPa
10:42 18.8 °C 13.6 °C 72 % 15 km/h (29 km/h) 0 mm0 mm 21 °C 21.6 °C 21.5 °C 20.4 °C 0 cm 4 min 142.7 W/m² 1020 hPa
10:36 18.7 °C 13.3 °C 71 % 13 km/h (27 km/h) 0 mm0 mm 21 °C 21.6 °C 21.5 °C 20.4 °C 0 cm 0 min 106.2 W/m² 1020 hPa
10:30 18.8 °C 13.4 °C 71 % 14 km/h (27 km/h) 0 mm0 mm 21 °C 21.6 °C 21.5 °C 20.4 °C 0 cm 4 min 157.7 W/m² 1019.9 hPa
10:24 18.6 °C 13.2 °C 71 % 12 km/h (25 km/h) 0 mm0 mm 21 °C 21.6 °C 21.5 °C 20.4 °C 0 cm 0 min 107.9 W/m² 1020 hPa
10:18 18.6 °C 14.1 °C 75 % 10 km/h (24 km/h) 0 mm0 mm 21 °C 21.6 °C 21.5 °C 20.4 °C 0 cm 0 min 98.1 W/m² 1019.9 hPa
10:12 18.3 °C 13.6 °C 74 % 13 km/h (24 km/h) 0 mm0 mm 21 °C 21.6 °C 21.5 °C 20.4 °C 0 cm 0 min 93.1 W/m² 1019.8 hPa
10:06 18.3 °C 13.6 °C 74 % 12 km/h (27 km/h) 0 mm0 mm 21 °C 21.7 °C 21.5 °C 20.4 °C 0 cm 0 min 96.2 W/m² 1019.8 hPa
10:00 18.3 °C 14 °C 76 % 13 km/h (31 km/h) 0 mm0 mm 20.9 °C 21.7 °C 21.5 °C 20.4 °C 0 cm 5 min 128.9 W/m² 1019.8 hPa
09:54 18.3 °C 14.4 °C 78 % 11 km/h (25 km/h) 0 mm0 mm 21 °C 21.7 °C 21.5 °C 20.4 °C 0 cm 5 min 138.9 W/m² 1019.8 hPa
09:48 17.9 °C 14.2 °C 79 % 13 km/h (26 km/h) 0 mm0 mm 21 °C 21.7 °C 21.6 °C 20.4 °C 0 cm 4 min 119.7 W/m² 1019.7 hPa
09:42 17.6 °C 13.9 °C 79 % 14 km/h (26 km/h) 0 mm0 mm 21 °C 21.7 °C 21.5 °C 20.4 °C 0 cm 0 min 84.3 W/m² 1019.9 hPa
09:36 17.4 °C 14.1 °C 81 % 13 km/h (24 km/h) 0 mm0 mm 21 °C 21.7 °C 21.5 °C 20.4 °C 0 cm 0 min 67.5 W/m² 1019.8 hPa
09:30 17.4 °C 14.1 °C 81 % 14 km/h (28 km/h) 0 mm0 mm 21 °C 21.7 °C 21.5 °C 20.4 °C 0 cm 0 min 60.7 W/m² 1020 hPa
09:24 17.4 °C 14.1 °C 81 % 15 km/h (30 km/h) 0 mm0 mm 21 °C 21.7 °C 21.5 °C 20.4 °C 0 cm 0 min 62.8 W/m² 1020 hPa
09:18 17.4 °C 14.3 °C 82 % 15 km/h (30 km/h) 0 mm0 mm 21.1 °C 21.7 °C 21.5 °C 20.4 °C 0 cm 1 min 77.7 W/m² 1020 hPa
09:12 17.3 °C 14.2 °C 82 % 13 km/h (28 km/h) 0 mm0 mm 21.1 °C 21.8 °C 21.5 °C 20.4 °C 0 cm 1 min 61.3 W/m² 1019.9 hPa
09:06 17.3 °C 14.4 °C 83 % 13 km/h (29 km/h) 0 mm0 mm 21.1 °C 21.7 °C 21.5 °C 20.4 °C 0 cm 0 min 55.6 W/m² 1019.9 hPa
09:00 17.3 °C 14.4 °C 83 % 13 km/h (29 km/h) 0 mm0 mm 21.1 °C 21.8 °C 21.5 °C 20.4 °C 0 cm 0 min 57.3 W/m² 1019.8 hPa
08:54 17.3 °C 14.4 °C 83 % 13 km/h (25 km/h) 0 mm0 mm 21.1 °C 21.8 °C 21.5 °C 20.4 °C 0 cm 0 min 57.3 W/m² 1019.8 hPa
08:48 17 °C 14.1 °C 83 % 11 km/h (23 km/h) 0 mm0 mm 21.1 °C 21.9 °C 21.5 °C 20.4 °C 0 cm 0 min 40 W/m² 1019.8 hPa
08:42 16.8 °C 14.3 °C 85 % 11 km/h (22 km/h) 0 mm0 mm 21.1 °C 21.8 °C 21.5 °C 20.4 °C 0 cm 0 min 14.4 W/m² 1019.8 hPa
08:36 16.7 °C 14.2 °C 85 % 11 km/h (22 km/h) 0 mm0 mm 21.2 °C 21.8 °C 21.6 °C 20.4 °C 0 cm 0 min 11.1 W/m² 1019.7 hPa
08:30 16.6 °C 14.1 °C 85 % 9 km/h (22 km/h) 0 mm0 mm 21.2 °C 21.9 °C 21.6 °C 20.4 °C 0 cm 0 min 10.3 W/m² 1019.6 hPa
08:24 16.4 °C 14.2 °C 87 % 10 km/h (21 km/h) 0 mm0 mm 21.2 °C 21.9 °C 21.6 °C 20.4 °C 0 cm 0 min 9.3 W/m² 1019.6 hPa
08:18 16.4 °C 14.2 °C 87 % 11 km/h (21 km/h) 0 mm0 mm 21.2 °C 21.9 °C 21.6 °C 20.4 °C 0 cm 0 min 8.4 W/m² 1019.6 hPa
08:12 16.3 °C 14.3 °C 88 % 10 km/h (21 km/h) 0 mm0 mm 21.3 °C 21.9 °C 21.5 °C 20.4 °C 0 cm 0 min 7.7 W/m² 1019.5 hPa
08:06 16.2 °C 14.4 °C 89 % 10 km/h (21 km/h) 0 mm0 mm 21.3 °C 21.9 °C 21.6 °C 20.4 °C 0 cm 0 min 7 W/m² 1019.5 hPa
08:00 16.2 °C 14.4 °C 89 % 10 km/h (20 km/h) 0 mm0 mm 21.3 °C 21.9 °C 21.6 °C 20.4 °C 0 cm 0 min 6.3 W/m² 1019.5 hPa
07:54 16.1 °C 14.5 °C 90 % 9 km/h (23 km/h) 0 mm0 mm 21.3 °C 21.9 °C 21.5 °C 20.4 °C 0 cm 0 min 5.5 W/m² 1019.4 hPa
07:48 16.1 °C 14.6 °C 91 % 8 km/h (22 km/h) 0 mm0 mm 21.3 °C 22 °C 21.6 °C 20.4 °C 0 cm 0 min 5.1 W/m² 1019.4 hPa
07:42 16 °C 14.5 °C 91 % 10 km/h (17 km/h) 0 mm0 mm 21.4 °C 22 °C 21.5 °C 20.4 °C 0 cm 0 min 3.8 W/m² 1019.3 hPa
07:36 16 °C 14.5 °C 91 % 10 km/h (19 km/h) 0 mm0 mm 21.4 °C 22 °C 21.6 °C 20.4 °C 0 cm 0 min 0 W/m² 1019.2 hPa
07:30 16 °C 14.7 °C 92 % 10 km/h (19 km/h) 0 mm0 mm 21.4 °C 22 °C 21.5 °C 20.4 °C 0 cm 0 min 0 W/m² 1019.2 hPa
07:24 15.9 °C 14.6 °C 92 % 8 km/h (16 km/h) 0 mm0 mm 21.4 °C 22 °C 21.5 °C 20.4 °C 0 cm 0 min 0 W/m² 1019.1 hPa
07:18 15.9 °C 14.6 °C 92 % 8 km/h (20 km/h) 0 mm0 mm 21.4 °C 22 °C 21.6 °C 20.4 °C 0 cm 0 min 0 W/m² 1019.1 hPa
07:12 15.9 °C 14.6 °C 92 % 9 km/h (20 km/h) 0 mm0 mm 21.5 °C 22 °C 21.6 °C 20.4 °C 0 cm 0 min 0 W/m² 1019.1 hPa
07:06 15.9 °C 14.8 °C 93 % 8 km/h (21 km/h) 0 mm0 mm 21.5 °C 22 °C 21.5 °C 20.4 °C 0 cm 0 min 0 W/m² 1019.1 hPa
07:00 15.9 °C 14.8 °C 93 % 8 km/h (17 km/h) 0 mm0 mm 21.5 °C 22 °C 21.5 °C 20.4 °C 0 cm 0 min 0 W/m² 1019.1 hPa
06:54 15.9 °C 14.8 °C 93 % 8 km/h (17 km/h) 0 mm0 mm 21.5 °C 22 °C 21.6 °C 20.4 °C 0 cm 0 min 0 W/m² 1019 hPa
06:48 15.9 °C 14.8 °C 93 % 7 km/h (17 km/h) 0 mm0 mm 21.5 °C 22.1 °C 21.6 °C 20.4 °C 0 cm 0 min 0 W/m² 1018.9 hPa
06:42 15.9 °C 14.8 °C 93 % 7 km/h (17 km/h) 0 mm0 mm 21.5 °C 22.1 °C 21.5 °C 20.4 °C 0 cm 0 min 0 W/m² 1018.9 hPa
06:36 15.8 °C 14.8 °C 94 % 5 km/h (11 km/h) 0 mm0 mm 21.6 °C 22.1 °C 21.6 °C 20.4 °C 0 cm 0 min 0 W/m² 1018.9 hPa
06:30 15.8 °C 14.8 °C 94 % 4 km/h (10 km/h) 0 mm0 mm 21.6 °C 22.1 °C 21.6 °C 20.4 °C 0 cm 0 min 0 W/m² 1018.9 hPa
06:24 15.8 °C 14.8 °C 94 % 4 km/h (10 km/h) 0 mm0 mm 21.6 °C 22.1 °C 21.6 °C 20.4 °C 0 cm 0 min 0 W/m² 1018.9 hPa
06:18 15.9 °C 14.9 °C 94 % 5 km/h (12 km/h) 0 mm0 mm 21.6 °C 22.1 °C 21.6 °C 20.4 °C 0 cm 0 min 0 W/m² 1018.8 hPa
06:12 16 °C 14.9 °C 93 % 5 km/h (10 km/h) 0 mm0 mm 21.6 °C 22.1 °C 21.5 °C 20.4 °C 0 cm 0 min 0 W/m² 1018.8 hPa
06:06 16 °C 15 °C 94 % 5 km/h (13 km/h) 0 mm0 mm 21.7 °C 22.1 °C 21.5 °C 20.4 °C 0 cm 0 min 0 W/m² 1018.8 hPa
06:00 16.1 °C 15.1 °C 94 % 5 km/h (13 km/h) 0 mm0 mm 21.7 °C 22.1 °C 21.6 °C 20.4 °C 0 cm 0 min 0 W/m² 1018.8 hPa
05:54 16.1 °C 15.1 °C 94 % 5 km/h (14 km/h) 0 mm0 mm 21.7 °C 22.1 °C 21.6 °C 20.4 °C 0 cm 0 min 0 W/m² 1018.7 hPa
05:48 16.1 °C 15.1 °C 94 % 5 km/h (12 km/h) 0 mm0 mm 21.7 °C 22.2 °C 21.6 °C 20.4 °C 0 cm 0 min 0 W/m² 1018.8 hPa
05:42 16.1 °C 15.1 °C 94 % 5 km/h (13 km/h) 0 mm0 mm 21.7 °C 22.2 °C 21.5 °C 20.4 °C 0 cm 0 min 0 W/m² 1018.7 hPa
05:36 16.1 °C 15.1 °C 94 % 5 km/h (13 km/h) 0 mm0 mm 21.7 °C 22.2 °C 21.5 °C 20.4 °C 0 cm 0 min 0 W/m² 1018.8 hPa
05:30 16.2 °C 15.2 °C 94 % 6 km/h (16 km/h) 0 mm0 mm 21.8 °C 22.2 °C 21.5 °C 20.4 °C 0 cm 0 min 0 W/m² 1018.8 hPa
05:24 16.3 °C 15.3 °C 94 % 8 km/h (16 km/h) 0 mm0 mm 21.8 °C 22.3 °C 21.6 °C 20.4 °C 0 cm 0 min 0 W/m² 1018.8 hPa
05:18 16.4 °C 15.3 °C 93 % 8 km/h (17 km/h) 0 mm0 mm 21.8 °C 22.2 °C 21.6 °C 20.4 °C 0 cm 0 min 0 W/m² 1018.8 hPa
05:12 16.4 °C 15.3 °C 93 % 8 km/h (17 km/h) 0 mm0 mm 21.8 °C 22.2 °C 21.5 °C 20.4 °C 0 cm 0 min 0 W/m² 1018.8 hPa
05:06 16.4 °C 15.3 °C 93 % 9 km/h (18 km/h) 0 mm0 mm 21.9 °C 22.3 °C 21.5 °C 20.4 °C 0 cm 0 min 0 W/m² 1018.8 hPa
05:00 16.4 °C 15.3 °C 93 % 9 km/h (18 km/h) 0 mm0 mm 21.9 °C 22.3 °C 21.5 °C 20.4 °C 0 cm 0 min 0 W/m² 1018.8 hPa
04:54 16.5 °C 15.4 °C 93 % 10 km/h (18 km/h) 0 mm0 mm 21.9 °C 22.3 °C 21.5 °C 20.4 °C 0 cm 0 min 0 W/m² 1018.6 hPa
04:48 16.5 °C 15.2 °C 92 % 9 km/h (21 km/h) 0 mm0 mm 21.9 °C 22.3 °C 21.5 °C 20.4 °C 0 cm 0 min 0 W/m² 1018.6 hPa
04:42 16.6 °C 15.5 °C 93 % 8 km/h (13 km/h) 0 mm0 mm 21.9 °C 22.3 °C 21.5 °C 20.4 °C 0 cm 0 min 0 W/m² 1018.6 hPa
04:36 16.7 °C 15.6 °C 93 % 7 km/h (15 km/h) 0 mm0 mm 21.9 °C 22.3 °C 21.5 °C 20.4 °C 0 cm 0 min 0 W/m² 1018.6 hPa
04:30 16.8 °C 15.7 °C 93 % 8 km/h (17 km/h) 0 mm0 mm 22 °C 22.3 °C 21.5 °C 20.4 °C 0 cm 0 min 0 W/m² 1018.5 hPa
04:24 16.9 °C 15.6 °C 92 % 10 km/h (18 km/h) 0 mm0 mm 22 °C 22.3 °C 21.5 °C 20.4 °C 0 cm 0 min 0 W/m² 1018.4 hPa
04:18 17 °C 15.7 °C 92 % 11 km/h (20 km/h) 0 mm0 mm 22 °C 22.4 °C 21.5 °C 20.4 °C 0 cm 0 min 0 W/m² 1018.3 hPa
04:12 17.1 °C 15.8 °C 92 % 10 km/h (22 km/h) 0 mm0 mm 22 °C 22.4 °C 21.5 °C 20.4 °C 0 cm 0 min 0 W/m² 1018.2 hPa
04:06 17.2 °C 15.9 °C 92 % 12 km/h (22 km/h) 0 mm0 mm 22 °C 22.4 °C 21.5 °C 20.4 °C 0 cm 0 min 0 W/m² 1018.2 hPa
04:00 17.3 °C 16 °C 92 % 11 km/h (21 km/h) 0 mm0 mm 22.1 °C 22.4 °C 21.6 °C 20.4 °C 0 cm 0 min 0 W/m² 1018.2 hPa
03:54 17.3 °C 16 °C 92 % 12 km/h (26 km/h) 0 mm0 mm 22.1 °C 22.4 °C 21.5 °C 20.4 °C 0 cm 0 min 0 W/m² 1018.1 hPa
03:48 17.4 °C 16.1 °C 92 % 12 km/h (26 km/h) 0 mm0 mm 22.1 °C 22.4 °C 21.5 °C 20.4 °C 0 cm 0 min 0 W/m² 1018 hPa
03:42 17.3 °C 16.3 °C 94 % 12 km/h (22 km/h) 0 mm0 mm 22.1 °C 22.4 °C 21.5 °C 20.4 °C 0 cm 0 min 0 W/m² 1018 hPa
03:36 17.4 °C 16.6 °C 95 % 13 km/h (23 km/h) 0 mm0 mm 22.1 °C 22.4 °C 21.5 °C 20.4 °C 0 cm 0 min 0 W/m² 1018 hPa
03:30 17.4 °C 16.6 °C 95 % 12 km/h (25 km/h) 0 mm0 mm 22.1 °C 22.4 °C 21.5 °C 20.4 °C 0 cm 0 min 0 W/m² 1017.9 hPa
03:24 17.5 °C 16.9 °C 96 % 12 km/h (25 km/h) 0 mm0 mm 22.2 °C 22.4 °C 21.5 °C 20.4 °C 0 cm 0 min 0 W/m² 1017.9 hPa
03:18 17.5 °C 16.9 °C 96 % 12 km/h (21 km/h) 0 mm0 mm 22.2 °C 22.4 °C 21.5 °C 20.4 °C 0 cm 0 min 0 W/m² 1017.8 hPa
03:12 17.6 °C 17 °C 96 % 11 km/h (24 km/h) 0 mm0 mm 22.2 °C 22.5 °C 21.5 °C 20.4 °C 0 cm 0 min 0 W/m² 1017.8 hPa
03:06 17.6 °C 17 °C 96 % 10 km/h (19 km/h) 0 mm0 mm 22.2 °C 22.5 °C 21.5 °C 20.4 °C 0 cm 0 min 0 W/m² 1017.8 hPa
03:00 17.5 °C 16.9 °C 96 % 8 km/h (19 km/h) 0 mm0 mm 22.3 °C 22.5 °C 21.5 °C 20.4 °C 0 cm 0 min 0 W/m² 1017.7 hPa
02:54 17.5 °C 17 °C 97 % 7 km/h (14 km/h) 0 mm0 mm 22.2 °C 22.5 °C 21.5 °C 20.4 °C 0 cm 0 min 0 W/m² 1017.6 hPa
02:48 17.4 °C 16.9 °C 97 % 6 km/h (13 km/h) 0 mm0 mm 22.3 °C 22.5 °C 21.5 °C 20.4 °C 0 cm 0 min 0 W/m² 1017.4 hPa
02:42 17.4 °C 16.9 °C 97 % 6 km/h (13 km/h) 0 mm0 mm 22.3 °C 22.5 °C 21.5 °C 20.4 °C 0 cm 0 min 0 W/m² 1017.4 hPa
02:36 17.2 °C 16.7 °C 97 % 4 km/h (12 km/h) 0 mm0 mm 22.3 °C 22.5 °C 21.5 °C 20.4 °C 0 cm 0 min 0 W/m² 1017.2 hPa
02:30 17.2 °C 16.7 °C 97 % 4 km/h (13 km/h) 0 mm0 mm 22.3 °C 22.5 °C 21.5 °C 20.4 °C 0 cm 0 min 0 W/m² 1017.2 hPa
02:24 17.2 °C 16.7 °C 97 % 4 km/h (13 km/h) 0 mm0 mm 22.4 °C 22.6 °C 21.5 °C 20.4 °C 0 cm 0 min 0 W/m² 1017.3 hPa
02:18 17.2 °C 16.6 °C 96 % 4 km/h (12 km/h) 0 mm0 mm 22.4 °C 22.5 °C 21.5 °C 20.4 °C 0 cm 0 min 0 W/m² 1017.2 hPa
02:12 17.3 °C 16.8 °C 97 % 4 km/h (12 km/h) 0 mm0 mm 22.4 °C 22.6 °C 21.5 °C 20.4 °C 0 cm 0 min 0 W/m² 1017.3 hPa
02:06 17.2 °C 16.7 °C 97 % 4 km/h (10 km/h) 0 mm0 mm 22.4 °C 22.6 °C 21.5 °C 20.4 °C 0 cm 0 min 0 W/m² 1017.4 hPa
02:00 17.2 °C 16.6 °C 96 % 4 km/h (10 km/h) 0 mm0 mm 22.4 °C 22.6 °C 21.5 °C 20.4 °C 0 cm 0 min 0 W/m² 1017.4 hPa
01:54 17.3 °C 16.7 °C 96 % 3 km/h (8 km/h) 0 mm0 mm 22.4 °C 22.6 °C 21.5 °C 20.4 °C 0 cm 0 min 0 W/m² 1017.4 hPa
01:48 17.3 °C 16.7 °C 96 % 2 km/h (5 km/h) 0 mm0 mm 22.5 °C 22.6 °C 21.5 °C 20.4 °C 0 cm 0 min 0 W/m² 1017.4 hPa
01:42 17.4 °C 16.6 °C 95 % 3 km/h (10 km/h) 0 mm0 mm 22.5 °C 22.6 °C 21.5 °C 20.4 °C 0 cm 0 min 0 W/m² 1017.4 hPa
01:36 17.4 °C 16.6 °C 95 % 4 km/h (10 km/h) 0 mm0 mm 22.5 °C 22.6 °C 21.5 °C 20.4 °C 0 cm 0 min 0 W/m² 1017.4 hPa
01:30 17.5 °C 16.7 °C 95 % 4 km/h (10 km/h) 0 mm0 mm 22.5 °C 22.6 °C 21.5 °C 20.4 °C 0 cm 0 min 0 W/m² 1017.4 hPa
01:24 17.6 °C 16.6 °C 94 % 4 km/h (10 km/h) 0 mm0 mm 22.5 °C 22.7 °C 21.5 °C 20.4 °C 0 cm 0 min 0 W/m² 1017.2 hPa
01:18 17.7 °C 16.6 °C 93 % 6 km/h (14 km/h) 0 mm0 mm 22.5 °C 22.7 °C 21.5 °C 20.4 °C 0 cm 0 min 0 W/m² 1017.3 hPa
01:12 17.8 °C 16.5 °C 92 % 7 km/h (14 km/h) 0 mm0 mm 22.6 °C 22.6 °C 21.5 °C 20.4 °C 0 cm 0 min 0 W/m² 1017.3 hPa
01:06 17.8 °C 16.7 °C 93 % 6 km/h (14 km/h) 0 mm0 mm 22.6 °C 22.7 °C 21.5 °C 20.4 °C 0 cm 0 min 0 W/m² 1017.1 hPa
01:00 17.8 °C 16.7 °C 93 % 5 km/h (12 km/h) 0 mm0.1 mm 22.6 °C 22.7 °C 21.5 °C 20.4 °C 0 cm 0 min 0 W/m² 1017.2 hPa
00:54 17.7 °C 16.6 °C 93 % 5 km/h (12 km/h) 0 mm0 mm 22.6 °C 22.7 °C 21.5 °C 20.4 °C 0 cm 0 min 0 W/m² 1017.2 hPa
00:48 17.7 °C 16.7 °C 94 % 4 km/h (9 km/h) 0 mm0 mm 22.6 °C 22.7 °C 21.5 °C 20.4 °C 0 cm 0 min 0 W/m² 1017.2 hPa
00:42 17.7 °C 16.7 °C 94 % 4 km/h (10 km/h) 0 mm0 mm 22.7 °C 22.7 °C 21.5 °C 20.4 °C 0 cm 0 min 0 W/m² 1017.2 hPa
00:36 17.7 °C 16.9 °C 95 % 4 km/h (10 km/h) 0 mm0 mm 22.7 °C 22.7 °C 21.5 °C 20.4 °C 0 cm 0 min 0 W/m² 1017.2 hPa
00:30 17.7 °C 16.7 °C 94 % 4 km/h (11 km/h) 0 mm0 mm 22.8 °C 22.8 °C 21.5 °C 20.4 °C 0 cm 0 min 0 W/m² 1017.1 hPa
00:24 17.7 °C 16.9 °C 95 % 5 km/h (11 km/h) 0 mm0 mm 22.8 °C 22.7 °C 21.5 °C 20.4 °C 0 cm 0 min 0 W/m² 1017 hPa
00:18 17.7 °C 16.9 °C 95 % 6 km/h (12 km/h) 0 mm0 mm 22.8 °C 22.8 °C 21.5 °C 20.4 °C 0 cm 0 min 0 W/m² 1017.1 hPa
00:12 17.7 °C 16.9 °C 95 % 6 km/h (12 km/h) 0.1 mm0 mm 22.8 °C 22.8 °C 21.5 °C 20.4 °C 0 cm 0 min 0 W/m² 1016.9 hPa
00:06 17.7 °C 17.1 °C 96 % 5 km/h (13 km/h) 0 mm0 mm 22.8 °C 22.8 °C 21.5 °C 20.4 °C 0 cm 0 min 0 W/m² 1016.6 hPa
00:00 17.6 °C 17 °C 96 % 4 km/h (10 km/h) 0 mm3 mm 22.9 °C 22.8 °C 21.4 °C 20.4 °C 0 cm 0 min 0 W/m² 1016.6 hPa

Données via Météo-France

Relevés météo à Besancon

Cette page rassemble les observations de la station de Besancon : température, humidité, vent, précipitations et pression atmosphérique. Les graphiques facilitent le suivi de la journée, tandis que le tableau donne accès aux mesures horaires et infra-horaires disponibles.

Pour replacer ces mesures dans leur contexte, consultez la climatologie de Besancon ainsi que ses normales et records. Retrouvez aussi la carte des observations météo en temps réel.